Time;durP1;ratioP1;P1;durP2;ratioP2;P2;SDS_P1;SDS_P2;PMS_P1;PMS_P2;Temp;Humidity;BMP_temperature;BMP_pressure;BME280_temperature;BME280_humidity;BME280_pressure;Samples;Min_cycle;Max_cycle;Signal;HPM_P1;HPM_P2
2022/12/03 00:00:56;;;;;;;42.93;21.83;;;-1.00;36.60;;;;;;8318057;28;20210;-69
2022/12/03 00:04:56;;;;;;;49.70;24.27;;;-1.00;1.00;;;;;;8327249;28;20320;-68
2022/12/03 00:08:57;;;;;;;41.67;20.50;;;-1.00;82.10;;;;;;8329150;28;20177;-69
2022/12/03 00:12:58;;;;;;;40.67;19.67;;;-1.00;58.50;;;;;;8321335;28;20186;-69
2022/12/03 00:16:59;;;;;;;37.33;20.70;;;-1.00;99.90;;;;;;8320577;28;20603;-69
2022/12/03 00:21:00;;;;;;;41.27;20.60;;;-1.00;99.90;;;;;;8323155;28;20212;-69
2022/12/03 00:25:01;;;;;;;29.27;17.90;;;-1.00;1.00;;;;;;8334020;28;20447;-70
2022/12/03 00:29:05;;;;;;;37.93;20.63;;;-1.10;1.00;;;;;;8318978;28;20198;-70
2022/12/03 00:33:06;;;;;;;52.00;23.87;;;-1.00;99.90;;;;;;8325023;28;20183;-69
2022/12/03 00:37:06;;;;;;;47.47;21.40;;;-1.00;99.90;;;;;;8324882;28;20185;-70
2022/12/03 00:41:07;;;;;;;38.37;19.77;;;-1.00;1.00;;;;;;8319514;28;20218;-70
2022/12/03 00:45:08;;;;;;;39.73;20.80;;;-1.10;1.00;;;;;;8324748;28;20345;-69
2022/12/03 00:49:09;;;;;;;41.67;19.33;;;-1.10;99.90;;;;;;8315535;28;20525;-72
2022/12/03 00:53:10;;;;;;;39.53;20.00;;;-1.10;99.90;;;;;;8326264;28;20183;-71
2022/12/03 00:57:11;;;;;;;37.07;19.40;;;-1.10;99.90;;;;;;8323966;28;20221;-70
2022/12/03 01:01:12;;;;;;;39.03;19.60;;;-1.10;99.90;;;;;;8317676;28;20216;-70
2022/12/03 01:05:13;;;;;;;43.97;20.60;;;-1.10;6.00;;;;;;8315143;28;20185;-71
2022/12/03 01:09:13;;;;;;;45.00;19.60;;;-1.10;99.90;;;;;;8323223;28;20190;-71
2022/12/03 01:13:14;;;;;;;38.00;19.30;;;-1.10;1.00;;;;;;8322958;28;20189;-70
2022/12/03 01:17:15;;;;;;;41.03;19.77;;;-1.00;99.90;;;;;;8322394;28;20190;-69
2022/12/03 01:21:16;;;;;;;39.07;19.57;;;-1.00;99.90;;;;;;8318524;28;20301;-69
2022/12/03 01:25:17;;;;;;;41.27;20.17;;;-1.00;99.60;;;;;;8328399;28;20210;-69
2022/12/03 01:29:17;;;;;;;40.90;20.13;;;-1.10;1.00;;;;;;8321818;28;20182;-69
2022/12/03 01:33:18;;;;;;;39.13;19.97;;;-1.10;99.90;;;;;;8319849;28;20183;-69
2022/12/03 01:37:22;;;;;;;43.30;21.53;;;-1.10;99.90;;;;;;8318222;28;20181;-69
2022/12/03 01:41:24;;;;;;;41.67;22.77;;;-1.10;1.00;;;;;;8330593;28;20214;-69
2022/12/03 01:45:25;;;;;;;44.33;20.70;;;-1.00;1.00;;;;;;8324090;28;20221;-69
2022/12/03 01:49:31;;;;;;;50.87;22.70;;;-1.00;99.90;;;;;;8324448;28;20243;-69
2022/12/03 01:53:31;;;;;;;43.33;21.27;;;-1.00;77.50;;;;;;8335564;28;20186;-69
2022/12/03 01:57:46;;;;;;;42.50;22.07;;;-1.00;99.90;;;;;;8325413;28;20321;-69
2022/12/03 02:01:47;;;;;;;42.10;21.90;;;-1.00;1.00;;;;;;8335055;28;20202;-70
2022/12/03 02:05:48;;;;;;;49.03;23.27;;;-0.90;99.90;;;;;;8336329;28;20257;-69
2022/12/03 02:09:49;;;;;;;44.00;21.33;;;-1.00;1.00;;;;;;8326437;28;20179;-69
2022/12/03 02:13:57;;;;;;;48.03;22.60;;;-1.00;99.90;;;;;;8331347;28;20191;-69
2022/12/03 02:17:59;;;;;;;45.40;21.50;;;-1.00;99.90;;;;;;8325084;28;20210;-69
2022/12/03 02:22:11;;;;;;;40.17;22.20;;;-1.00;99.90;;;;;;8325750;28;20248;-69
2022/12/03 02:26:11;;;;;;;71.20;33.97;;;-1.00;1.00;;;;;;8325284;28;20183;-69
2022/12/03 02:30:16;;;;;;;45.17;23.37;;;-1.00;99.90;;;;;;8323046;28;20189;-69
2022/12/03 02:34:52;;;;;;;48.37;24.57;;;-1.00;99.90;;;;;;8329610;28;20197;-69
2022/12/03 02:38:53;;;;;;;42.60;21.03;;;-1.00;99.90;;;;;;8282842;28;20277;-69
2022/12/03 02:42:58;;;;;;;42.40;20.03;;;-1.00;58.20;;;;;;8322003;28;20207;-69
2022/12/03 02:47:00;;;;;;;47.43;21.70;;;-1.00;1.00;;;;;;8321132;28;21044;-69
2022/12/03 02:51:11;;;;;;;41.50;20.90;;;-1.00;1.00;;;;;;8326081;28;20183;-71
2022/12/03 02:55:15;;;;;;;48.67;21.23;;;-1.00;1.00;;;;;;8324604;28;20248;-69
2022/12/03 02:59:16;;;;;;;44.63;21.60;;;-1.00;99.90;;;;;;8327732;28;20202;-68
2022/12/03 03:03:17;;;;;;;43.10;21.00;;;-1.00;99.90;;;;;;8323828;28;20225;-70
2022/12/03 03:07:18;;;;;;;38.50;20.87;;;-1.00;1.00;;;;;;8329520;28;20181;-69
2022/12/03 03:11:19;;;;;;;41.70;20.20;;;-1.00;69.90;;;;;;8335623;28;20239;-69
2022/12/03 03:15:21;;;;;;;45.40;22.13;;;-1.00;99.90;;;;;;8327359;28;20247;-69
2022/12/03 03:19:25;;;;;;;43.13;21.40;;;-0.90;1.00;;;;;;8326965;28;20198;-69
2022/12/03 03:23:26;;;;;;;58.57;24.60;;;-0.90;1.00;;;;;;8328450;28;20641;-69
2022/12/03 03:27:28;;;;;;;53.00;23.90;;;-0.90;99.90;;;;;;8327504;28;20277;-70
2022/12/03 03:31:29;;;;;;;56.70;25.13;;;-0.90;1.00;;;;;;8330462;28;20190;-69
2022/12/03 03:35:30;;;;;;;54.77;25.67;;;-0.90;1.00;;;;;;8325336;28;20194;-69
2022/12/03 03:39:31;;;;;;;89.40;36.30;;;-0.90;99.90;;;;;;8329568;28;20239;-69
2022/12/03 03:43:33;;;;;;;77.93;33.70;;;-0.90;99.90;;;;;;8327924;28;20210;-69
2022/12/03 03:47:34;;;;;;;65.70;29.83;;;-0.90;99.90;;;;;;8323570;28;20189;-69
2022/12/03 03:51:37;;;;;;;53.03;26.17;;;-1.00;1.00;;;;;;8325542;28;20193;-69
2022/12/03 03:55:38;;;;;;;57.33;29.23;;;-1.00;99.90;;;;;;8329552;28;20190;-69
2022/12/03 03:59:39;;;;;;;51.20;24.83;;;-0.90;1.00;;;;;;8325877;28;20233;-68
2022/12/03 04:03:40;;;;;;;52.17;24.33;;;-0.90;1.00;;;;;;8320092;28;20213;-71
2022/12/03 04:07:41;;;;;;;49.57;23.13;;;-0.90;1.00;;;;;;8320448;28;20186;-69
2022/12/03 04:16:01;;;;;;;47.93;22.57;;;-0.90;87.20;;;;;;8323362;28;20209;-69
2022/12/03 04:20:02;;;;;;;48.33;22.57;;;-1.00;99.90;;;;;;8327750;28;20184;-69
2022/12/03 04:24:05;;;;;;;42.57;23.37;;;-0.90;1.00;;;;;;8322496;28;20230;-69
2022/12/03 04:36:59;;;;;;;52.03;25.40;;;-0.80;1.00;;;;;;8324005;28;20201;-69
2022/12/03 04:41:00;;;;;;;43.70;22.43;;;-0.90;1.00;;;;;;8325130;28;20206;-69
2022/12/03 04:45:01;;;;;;;47.63;22.37;;;-0.80;1.00;;;;;;8318681;28;20170;-68
2022/12/03 04:49:02;;;;;;;52.03;25.27;;;-0.80;99.90;;;;;;8320285;28;20198;-69
2022/12/03 04:53:02;;;;;;;53.17;24.20;;;-0.80;99.90;;;;;;8326772;28;20185;-69
2022/12/03 04:57:04;;;;;;;59.43;28.23;;;-0.80;99.90;;;;;;8324384;28;20205;-69
2022/12/03 05:01:05;;;;;;;45.37;20.80;;;-0.80;1.00;;;;;;8304359;28;20260;-69
2022/12/03 05:05:06;;;;;;;41.80;19.03;;;-0.80;99.90;;;;;;8325658;28;20183;-70
2022/12/03 05:09:07;;;;;;;50.37;23.57;;;-0.80;99.90;;;;;;8323371;28;20179;-69
2022/12/03 05:13:08;;;;;;;55.57;26.53;;;-0.80;99.90;;;;;;8321365;28;20191;-69
2022/12/03 05:17:09;;;;;;;50.30;24.23;;;-0.80;99.90;;;;;;8322914;28;20188;-69
2022/12/03 05:21:09;;;;;;;49.37;25.63;;;-0.80;99.90;;;;;;8321901;28;20227;-69
2022/12/03 05:25:10;;;;;;;51.97;23.90;;;-0.80;99.90;;;;;;8328263;28;20175;-69
2022/12/03 05:29:11;;;;;;;62.77;32.37;;;-0.80;99.90;;;;;;8328680;28;20195;-69
2022/12/03 05:33:12;;;;;;;51.27;26.90;;;-0.80;99.90;;;;;;8327265;28;20187;-69
2022/12/03 05:37:13;;;;;;;47.87;23.40;;;-0.80;99.90;;;;;;8334141;28;20181;-68
2022/12/03 05:45:35;;;;;;;42.67;20.17;;;-0.80;1.00;;;;;;8336777;28;20200;-69
2022/12/03 05:49:36;;;;;;;55.73;24.23;;;-0.90;99.90;;;;;;8334141;28;20182;-69
2022/12/03 05:53:37;;;;;;;53.77;25.47;;;-0.80;1.00;;;;;;8340736;28;20190;-69
2022/12/03 05:57:38;;;;;;;48.10;21.20;;;-0.80;99.90;;;;;;8335023;28;20563;-68
2022/12/03 06:01:38;;;;;;;55.87;23.23;;;-0.80;99.90;;;;;;8334468;28;20275;-68
2022/12/03 06:05:39;;;;;;;54.30;23.70;;;-0.80;99.90;;;;;;8335171;28;20209;-71
2022/12/03 06:09:40;;;;;;;57.43;24.37;;;-0.80;40.90;;;;;;8329788;28;20269;-68
2022/12/03 06:13:41;;;;;;;55.80;26.17;;;-0.80;99.90;;;;;;8333492;28;20221;-68
2022/12/03 06:17:42;;;;;;;72.47;31.27;;;-0.80;99.90;;;;;;8331786;28;20220;-68
2022/12/03 06:21:42;;;;;;;62.23;27.83;;;-0.80;1.00;;;;;;8337760;28;20210;-68
2022/12/03 06:25:43;;;;;;;53.57;23.37;;;-0.70;99.90;;;;;;8331957;28;20183;-68
2022/12/03 06:29:44;;;;;;;54.70;21.90;;;-0.80;31.30;;;;;;8333913;28;20186;-68
2022/12/03 06:33:45;;;;;;;44.10;20.47;;;-0.80;1.00;;;;;;8330572;28;20490;-69
2022/12/03 06:37:46;;;;;;;53.57;25.63;;;-0.80;99.90;;;;;;8333502;28;20190;-69
2022/12/03 06:41:46;;;;;;;47.03;20.73;;;-0.80;1.00;;;;;;8334194;28;20221;-69
2022/12/03 06:45:47;;;;;;;47.10;22.03;;;-0.80;99.90;;;;;;8336799;28;20186;-68
2022/12/03 06:49:48;;;;;;;44.83;21.30;;;-0.80;1.00;;;;;;8331433;28;20189;-69
2022/12/03 06:53:49;;;;;;;50.57;23.40;;;-0.80;99.90;;;;;;8330628;28;20270;-68
2022/12/03 06:57:49;;;;;;;58.03;25.40;;;-0.80;1.00;;;;;;8330295;28;20206;-68
2022/12/03 07:01:50;;;;;;;48.37;22.57;;;-0.70;99.90;;;;;;8329023;28;20217;-68
2022/12/03 07:05:51;;;;;;;57.00;24.57;;;-0.70;46.00;;;;;;8334522;28;20190;-69
2022/12/03 07:09:52;;;;;;;44.47;22.47;;;-0.70;99.90;;;;;;8333827;28;20183;-69
2022/12/03 07:13:53;;;;;;;56.80;25.70;;;-0.70;99.90;;;;;;8337001;28;20240;-68
2022/12/03 07:17:54;;;;;;;73.00;35.00;;;-0.60;99.90;;;;;;8328773;28;20379;-69
2022/12/03 07:21:54;;;;;;;55.03;25.57;;;-0.60;99.90;;;;;;8321656;28;20206;-69
2022/12/03 07:25:55;;;;;;;62.20;28.47;;;-0.50;99.90;;;;;;8324320;28;20241;-70
2022/12/03 07:29:56;;;;;;;57.40;27.80;;;-0.50;99.90;;;;;;8332925;28;20183;-69
2022/12/03 07:33:57;;;;;;;61.80;31.47;;;-0.50;21.50;;;;;;8345144;28;20191;-69
2022/12/03 07:37:57;;;;;;;66.53;29.20;;;-0.60;81.40;;;;;;8333561;28;20219;-69
2022/12/03 07:41:58;;;;;;;78.47;33.93;;;-0.50;99.90;;;;;;8331860;28;20211;-69
2022/12/03 07:45:59;;;;;;;58.43;29.23;;;-0.50;99.90;;;;;;8331764;28;20198;-69
2022/12/03 07:50:00;;;;;;;57.13;26.93;;;-0.50;21.20;;;;;;8330543;28;20186;-68
2022/12/03 07:54:00;;;;;;;52.93;25.83;;;-0.40;1.00;;;;;;8332468;28;20182;-69
2022/12/03 07:58:01;;;;;;;73.83;34.00;;;-0.40;99.90;;;;;;8328510;28;20203;-69
2022/12/03 08:02:02;;;;;;;58.87;28.43;;;-0.40;99.90;;;;;;8330256;28;20241;-69
2022/12/03 08:06:03;;;;;;;69.87;30.47;;;-0.30;1.00;;;;;;8325172;28;20175;-69
2022/12/03 08:10:05;;;;;;;71.13;31.30;;;-0.30;1.00;;;;;;8326828;28;20182;-70
2022/12/03 08:14:12;;;;;;;60.13;25.47;;;-0.30;1.00;;;;;;8330506;28;20186;-69
2022/12/03 08:18:16;;;;;;;80.83;39.63;;;-0.30;1.00;;;;;;8322310;28;20201;-69
2022/12/03 08:22:16;;;;;;;62.03;27.77;;;-0.30;1.00;;;;;;8323910;28;20211;-69
2022/12/03 08:26:22;;;;;;;73.73;34.83;;;-0.30;1.00;;;;;;8329516;28;20217;-69
2022/12/03 08:30:23;;;;;;;61.33;29.13;;;-0.10;99.90;;;;;;8330859;28;20178;-69
2022/12/03 08:34:27;;;;;;;54.13;26.50;;;-0.10;99.90;;;;;;8330473;28;20212;-69
2022/12/03 08:38:28;;;;;;;65.33;33.53;;;-0.10;1.00;;;;;;8320721;28;20186;-69
2022/12/03 08:42:43;;;;;;;55.47;26.43;;;-0.10;53.90;;;;;;8324069;28;20402;-70
2022/12/03 08:46:44;;;;;;;58.13;26.07;;;0.00;1.00;;;;;;8327444;28;20189;-69
2022/12/03 08:50:45;;;;;;;55.73;25.90;;;0.10;1.00;;;;;;8324630;28;20240;-70
2022/12/03 08:54:54;;;;;;;60.47;29.93;;;0.10;1.00;;;;;;8327327;28;20242;-70
2022/12/03 08:59:13;;;;;;;55.57;27.57;;;0.10;1.00;;;;;;8321932;28;20194;-70
2022/12/03 09:03:17;;;;;;;65.63;29.53;;;0.20;1.00;;;;;;8324070;28;20209;-70
2022/12/03 09:07:18;;;;;;;74.00;33.80;;;0.30;99.90;;;;;;8338078;28;20202;-70
2022/12/03 09:11:19;;;;;;;71.07;31.77;;;0.30;99.90;;;;;;8322343;28;20186;-70
2022/12/03 09:15:19;;;;;;;53.33;26.63;;;0.40;99.90;;;;;;8326516;28;20296;-70
2022/12/03 09:19:22;;;;;;;52.30;24.30;;;0.50;99.90;;;;;;8322301;28;20185;-70
2022/12/03 09:23:23;;;;;;;47.00;21.40;;;0.50;99.90;;;;;;8327075;28;20207;-70
2022/12/03 09:27:23;;;;;;;54.60;27.37;;;0.50;99.90;;;;;;8325179;28;20217;-70
2022/12/03 09:31:24;;;;;;;71.03;33.70;;;0.50;99.90;;;;;;8323234;28;20433;-70
2022/12/03 09:35:26;;;;;;;55.77;25.97;;;0.60;99.90;;;;;;8320283;28;20187;-70
2022/12/03 09:39:27;;;;;;;46.13;22.97;;;0.70;99.90;;;;;;8326182;28;20197;-69
2022/12/03 09:43:31;;;;;;;50.97;24.40;;;0.60;99.90;;;;;;8328837;28;20218;-70
2022/12/03 09:47:32;;;;;;;47.97;23.47;;;0.60;99.90;;;;;;8329971;28;20190;-70
2022/12/03 09:51:35;;;;;;;46.70;24.00;;;0.70;99.90;;;;;;8326721;28;20199;-69
2022/12/03 09:55:36;;;;;;;50.77;25.60;;;0.70;99.90;;;;;;8318012;28;20190;-69
2022/12/03 09:59:37;;;;;;;56.53;28.83;;;0.70;99.90;;;;;;8329515;28;20214;-70
2022/12/03 10:03:45;;;;;;;47.33;23.23;;;0.80;99.90;;;;;;8326583;28;20222;-71
2022/12/03 10:07:47;;;;;;;51.50;22.97;;;0.90;99.90;;;;;;8316268;28;20190;-71
2022/12/03 10:11:48;;;;;;;50.73;24.07;;;0.90;99.90;;;;;;8327695;28;20256;-71
2022/12/03 10:15:50;;;;;;;47.03;23.80;;;1.00;99.90;;;;;;8335406;28;20191;-70
2022/12/03 10:19:51;;;;;;;51.53;24.47;;;1.00;48.80;;;;;;8330988;28;20512;-70
2022/12/03 10:24:16;;;;;;;52.23;26.07;;;0.90;40.40;;;;;;8329339;28;20453;-71
2022/12/03 10:28:34;;;;;;;53.93;25.60;;;0.90;48.90;;;;;;8321253;28;20410;-70
2022/12/03 10:32:44;;;;;;;50.10;25.73;;;1.00;15.50;;;;;;8344866;28;20194;-70
2022/12/03 10:36:45;;;;;;;52.53;25.97;;;1.00;18.50;;;;;;8336289;28;20475;-70
2022/12/03 10:40:46;;;;;;;54.23;26.93;;;1.00;14.90;;;;;;8338131;28;20196;-71
2022/12/03 10:44:47;;;;;;;49.57;25.23;;;1.00;15.10;;;;;;8322685;28;20184;-70
2022/12/03 10:49:08;;;;;;;59.23;27.20;;;1.00;32.30;;;;;;8329108;28;20186;-71
2022/12/03 10:53:10;;;;;;;47.27;24.07;;;1.10;21.40;;;;;;8334945;28;20190;-70
2022/12/03 10:57:11;;;;;;;52.60;25.73;;;1.20;8.50;;;;;;8331751;28;20203;-71
2022/12/03 11:01:16;;;;;;;49.03;22.93;;;1.30;1.00;;;;;;8327423;28;20225;-71
2022/12/03 11:05:20;;;;;;;49.07;25.73;;;1.30;1.00;;;;;;8324880;28;20186;-72
2022/12/03 11:09:25;;;;;;;55.30;27.03;;;1.40;1.00;;;;;;8331084;28;20265;-72
2022/12/03 11:13:44;;;;;;;61.40;29.57;;;1.50;1.00;;;;;;8333770;28;20186;-72
2022/12/03 11:17:51;;;;;;;56.37;26.47;;;1.70;1.00;;;;;;8331412;28;20213;-73
2022/12/03 11:22:03;;;;;;;64.90;33.40;;;1.70;1.00;;;;;;8332583;28;20210;-73
2022/12/03 11:26:04;;;;;;;59.27;29.20;;;1.80;1.00;;;;;;8328930;28;20308;-73
2022/12/03 11:30:09;;;;;;;55.03;28.00;;;1.90;1.00;;;;;;8331070;28;20198;-71
2022/12/03 11:34:16;;;;;;;50.83;25.93;;;2.00;1.00;;;;;;8327763;28;20190;-72
2022/12/03 11:38:40;;;;;;;52.00;26.87;;;2.00;1.00;;;;;;8325742;28;20233;-71
2022/12/03 11:42:41;;;;;;;55.20;29.17;;;1.90;1.00;;;;;;8318079;28;20214;-72
2022/12/03 11:46:45;;;;;;;46.67;25.03;;;1.90;1.00;;;;;;8327953;28;20181;-72
2022/12/03 11:50:51;;;;;;;55.10;25.83;;;1.80;1.00;;;;;;8323008;28;20187;-74
2022/12/03 11:55:14;;;;;;;51.43;25.47;;;1.70;1.00;;;;;;8322913;28;20179;-72
2022/12/03 11:59:16;;;;;;;55.13;27.57;;;1.70;1.00;;;;;;8321146;28;20280;-73
2022/12/03 12:03:30;;;;;;;62.40;30.30;;;1.80;1.00;;;;;;8314735;28;20218;-71
2022/12/03 12:07:35;;;;;;;54.93;26.90;;;1.80;1.00;;;;;;8324583;28;20186;-71
2022/12/03 12:11:40;;;;;;;56.97;28.53;;;1.80;1.00;;;;;;8338384;28;20194;-71
2022/12/03 12:15:42;;;;;;;59.77;30.60;;;1.80;1.00;;;;;;8314314;28;20191;-71
2022/12/03 12:19:43;;;;;;;67.80;32.17;;;1.90;1.00;;;;;;8327785;28;20281;-71
2022/12/03 12:23:44;;;;;;;56.70;28.77;;;1.90;1.00;;;;;;8327657;28;20205;-71
2022/12/03 12:27:48;;;;;;;62.43;30.33;;;1.90;1.00;;;;;;8325666;28;20246;-71
2022/12/03 12:31:49;;;;;;;62.47;30.73;;;1.90;1.00;;;;;;8325303;28;20183;-71
2022/12/03 12:35:50;;;;;;;98.60;40.93;;;1.80;1.00;;;;;;8324861;28;20179;-71
2022/12/03 12:39:55;;;;;;;78.07;34.80;;;1.70;1.00;;;;;;8322810;28;20196;-72
2022/12/03 12:43:56;;;;;;;78.13;38.10;;;1.80;1.00;;;;;;8317383;28;20281;-72
2022/12/03 12:48:08;;;;;;;68.43;32.93;;;1.70;1.00;;;;;;8318862;28;20187;-70
2022/12/03 12:52:13;;;;;;;74.37;36.13;;;1.70;1.00;;;;;;8317965;28;20202;-70
2022/12/03 12:56:30;;;;;;;66.40;33.70;;;1.80;1.00;;;;;;8318314;28;20194;-70
2022/12/03 13:00:31;;;;;;;75.83;35.03;;;1.80;1.00;;;;;;8330002;28;20225;-70
2022/12/03 13:04:38;;;;;;;93.07;40.27;;;1.80;1.00;;;;;;8325268;28;20467;-69
2022/12/03 13:08:43;;;;;;;89.57;41.67;;;1.70;1.00;;;;;;8321934;28;20179;-72
2022/12/03 13:12:43;;;;;;;72.40;34.10;;;1.70;1.00;;;;;;8324144;28;20274;-72
2022/12/03 13:16:46;;;;;;;65.30;30.43;;;1.70;1.00;;;;;;8325794;28;20601;-72
2022/12/03 13:20:47;;;;;;;75.07;34.63;;;1.70;1.00;;;;;;8333237;28;20181;-70
2022/12/03 13:24:54;;;;;;;65.03;28.30;;;1.60;1.00;;;;;;8322055;28;20191;-69
2022/12/03 13:28:56;;;;;;;62.80;30.70;;;1.60;1.00;;;;;;8321564;28;20179;-70
2022/12/03 13:32:57;;;;;;;78.20;37.53;;;1.50;1.00;;;;;;8328066;28;20272;-70
2022/12/03 13:37:00;;;;;;;66.07;33.50;;;1.50;1.00;;;;;;8324211;28;20183;-70
2022/12/03 13:41:02;;;;;;;76.27;36.07;;;1.50;7.20;;;;;;8322470;28;20210;-70
2022/12/03 13:45:29;;;;;;;74.60;35.57;;;1.50;26.30;;;;;;8327951;28;20389;-71
2022/12/03 13:49:30;;;;;;;80.70;37.70;;;1.40;35.10;;;;;;8318041;28;20226;-70
2022/12/03 13:53:37;;;;;;;72.40;36.47;;;1.40;50.10;;;;;;8325423;28;20198;-70
2022/12/03 13:57:38;;;;;;;75.10;36.47;;;1.40;89.50;;;;;;8328065;28;20213;-69
2022/12/03 14:01:39;;;;;;;71.40;34.03;;;1.40;99.90;;;;;;8328018;28;20222;-70
2022/12/03 14:05:39;;;;;;;74.87;36.77;;;1.40;99.90;;;;;;8333220;28;20179;-70
2022/12/03 14:09:41;;;;;;;58.70;29.60;;;1.40;99.90;;;;;;8326218;28;20269;-70
2022/12/03 14:13:41;;;;;;;75.30;40.80;;;1.30;99.90;;;;;;8331939;28;20195;-70
2022/12/03 14:17:42;;;;;;;91.57;46.97;;;1.30;99.90;;;;;;8326730;28;20194;-69
2022/12/03 14:21:43;;;;;;;74.20;38.30;;;1.30;99.90;;;;;;8331234;28;20313;-70
2022/12/03 14:25:44;;;;;;;203.10;98.03;;;1.20;99.90;;;;;;8328771;28;20467;-69
2022/12/03 14:29:45;;;;;;;136.97;62.20;;;1.20;99.90;;;;;;8327267;28;20178;-70
2022/12/03 14:33:46;;;;;;;101.00;43.33;;;1.20;99.90;;;;;;8314905;28;20182;-70
2022/12/03 14:37:47;;;;;;;102.00;48.00;;;1.10;99.90;;;;;;8326185;28;20179;-70
2022/12/03 14:46:07;;;;;;;111.00;44.60;;;1.10;99.90;;;;;;8322435;28;20198;-69
2022/12/03 14:50:12;;;;;;;62.53;31.03;;;1.00;99.90;;;;;;8320399;28;20176;-69
2022/12/03 14:54:13;;;;;;;83.13;38.27;;;1.00;99.90;;;;;;8326493;28;20179;-69
2022/12/03 14:58:14;;;;;;;113.27;47.80;;;1.00;99.90;;;;;;8329057;28;20214;-69
2022/12/03 15:02:15;;;;;;;71.60;34.03;;;1.00;99.90;;;;;;8327921;28;20948;-69
2022/12/03 15:06:16;;;;;;;122.13;49.97;;;0.90;1.00;;;;;;8331596;28;20186;-70
2022/12/03 15:10:17;;;;;;;80.20;37.53;;;1.00;1.00;;;;;;8328471;28;20266;-68
2022/12/03 15:14:17;;;;;;;91.20;42.57;;;1.00;1.00;;;;;;8330907;28;20272;-70
2022/12/03 15:18:18;;;;;;;85.00;43.13;;;1.00;1.00;;;;;;8322697;28;20264;-70
2022/12/03 15:22:19;;;;;;;145.87;64.00;;;1.00;1.00;;;;;;8331726;28;20210;-69
2022/12/03 15:26:20;;;;;;;246.83;110.23;;;1.00;1.00;;;;;;8322418;28;20179;-70
2022/12/03 15:30:21;;;;;;;268.20;107.73;;;1.00;1.00;;;;;;8329272;28;20179;-70
2022/12/03 15:34:21;;;;;;;184.17;67.33;;;1.00;1.00;;;;;;8326656;28;20185;-69
2022/12/03 15:38:22;;;;;;;88.90;40.40;;;1.00;1.00;;;;;;8332010;28;20232;-69
2022/12/03 15:42:23;;;;;;;86.17;42.87;;;1.00;1.00;;;;;;8320338;28;20198;-70
2022/12/03 15:46:26;;;;;;;104.43;50.13;;;1.00;1.00;;;;;;8325370;28;20197;-69
2022/12/03 15:50:27;;;;;;;77.97;36.60;;;0.90;1.00;;;;;;8330378;28;20230;-68
2022/12/03 15:54:28;;;;;;;101.67;50.77;;;1.00;1.00;;;;;;8331453;28;20190;-69
2022/12/03 15:58:29;;;;;;;83.93;40.13;;;0.90;1.00;;;;;;8322480;28;20201;-70
2022/12/03 16:02:32;;;;;;;85.03;41.13;;;1.00;17.90;;;;;;8326502;28;20214;-70
2022/12/03 16:06:33;;;;;;;78.67;37.70;;;1.00;1.00;;;;;;8328432;28;20186;-70
2022/12/03 16:10:34;;;;;;;84.13;41.17;;;1.00;1.00;;;;;;8326118;28;20185;-70
2022/12/03 16:14:35;;;;;;;71.47;35.27;;;1.00;42.30;;;;;;8328878;28;20261;-70
2022/12/03 16:18:36;;;;;;;77.23;40.50;;;1.00;1.00;;;;;;8322531;28;20193;-70
2022/12/03 16:22:36;;;;;;;99.10;43.23;;;1.00;1.00;;;;;;8344846;28;20210;-70
2022/12/03 16:26:37;;;;;;;95.90;42.87;;;1.00;16.80;;;;;;8326982;28;20185;-70
2022/12/03 16:30:38;;;;;;;93.63;47.87;;;1.10;1.00;;;;;;8325347;28;20229;-70
2022/12/03 16:34:39;;;;;;;73.37;37.17;;;1.00;23.50;;;;;;8330862;28;20200;-71
2022/12/03 16:38:40;;;;;;;93.33;44.57;;;1.00;31.30;;;;;;8324064;28;20193;-71
2022/12/03 16:42:41;;;;;;;77.27;38.83;;;1.00;99.90;;;;;;8328614;28;20202;-70
2022/12/03 16:46:42;;;;;;;82.57;40.33;;;1.00;99.90;;;;;;8320536;28;20204;-70
2022/12/03 16:50:43;;;;;;;87.10;41.97;;;1.00;99.90;;;;;;8331377;28;20182;-70
2022/12/03 16:54:44;;;;;;;80.60;39.83;;;1.00;99.90;;;;;;8324399;28;20190;-70
2022/12/03 16:58:45;;;;;;;80.50;39.53;;;1.10;99.90;;;;;;8326379;28;20247;-70
2022/12/03 17:02:47;;;;;;;97.13;45.93;;;1.10;99.90;;;;;;8322734;28;20210;-70
2022/12/03 17:06:47;;;;;;;98.77;48.33;;;1.10;99.90;;;;;;8330919;28;20177;-70
2022/12/03 17:10:48;;;;;;;86.50;40.50;;;1.20;99.90;;;;;;8326773;28;20292;-71
2022/12/03 17:14:49;;;;;;;87.87;41.50;;;1.20;99.90;;;;;;8326360;28;20184;-71
2022/12/03 17:18:50;;;;;;;81.87;39.67;;;1.20;99.90;;;;;;8318740;28;20185;-71
2022/12/03 17:22:51;;;;;;;73.33;38.83;;;1.20;99.90;;;;;;8329343;28;20229;-71
2022/12/03 17:26:52;;;;;;;78.10;40.20;;;1.20;99.90;;;;;;8336301;28;20177;-71
2022/12/03 17:30:53;;;;;;;95.40;48.17;;;1.20;99.90;;;;;;8335661;28;20178;-72
2022/12/03 17:34:54;;;;;;;84.43;43.43;;;1.20;99.90;;;;;;8330373;28;20187;-71
2022/12/03 17:38:54;;;;;;;95.60;43.97;;;1.20;99.90;;;;;;8328525;28;20181;-71
2022/12/03 17:42:55;;;;;;;114.50;53.00;;;1.20;99.90;;;;;;8328583;28;20294;-71
2022/12/03 17:46:56;;;;;;;90.70;44.23;;;1.20;99.90;;;;;;8328320;28;20183;-71
2022/12/03 17:50:58;;;;;;;102.43;50.77;;;1.20;99.90;;;;;;8326832;28;20277;-71
2022/12/03 17:54:59;;;;;;;153.47;64.80;;;1.30;99.90;;;;;;8330523;28;20209;-71
2022/12/03 17:59:00;;;;;;;147.73;70.40;;;1.30;99.90;;;;;;8328989;28;20228;-71
2022/12/03 18:03:00;;;;;;;117.87;58.73;;;1.30;99.90;;;;;;8325209;28;20241;-71
2022/12/03 18:07:01;;;;;;;102.67;51.57;;;1.30;99.90;;;;;;8330501;28;20224;-71
2022/12/03 18:11:02;;;;;;;95.23;45.90;;;1.30;99.90;;;;;;8328646;28;20301;-71
2022/12/03 18:15:03;;;;;;;94.30;44.97;;;1.30;99.90;;;;;;8329101;28;20202;-70
2022/12/03 18:19:04;;;;;;;99.47;48.07;;;1.30;99.90;;;;;;8330757;28;20247;-70
2022/12/03 18:23:05;;;;;;;78.93;41.30;;;1.30;1.00;;;;;;8332519;28;20202;-70
2022/12/03 18:27:06;;;;;;;90.93;45.93;;;1.20;1.00;;;;;;8337918;28;20175;-70
2022/12/03 18:31:13;;;;;;;103.00;48.53;;;1.20;14.50;;;;;;8325394;28;20174;-71
2022/12/03 18:35:14;;;;;;;88.13;44.53;;;1.30;63.00;;;;;;8333744;28;20185;-71
2022/12/03 18:39:33;;;;;;;108.90;49.20;;;1.30;99.90;;;;;;8333727;28;20182;-70
2022/12/03 18:43:34;;;;;;;119.27;54.67;;;1.30;1.00;;;;;;8323575;28;20202;-70
2022/12/03 18:47:35;;;;;;;127.03;62.43;;;1.30;74.10;;;;;;8326979;28;20189;-71
2022/12/03 18:51:36;;;;;;;128.83;58.80;;;1.30;78.70;;;;;;8323718;28;20201;-71
2022/12/03 18:55:37;;;;;;;80.60;41.73;;;1.30;99.90;;;;;;8326233;28;20292;-71
2022/12/03 18:59:38;;;;;;;156.80;74.17;;;1.30;99.90;;;;;;8323266;28;20210;-71
2022/12/03 19:03:39;;;;;;;124.40;65.90;;;1.30;99.90;;;;;;8329783;28;20214;-72
2022/12/03 19:07:42;;;;;;;94.33;45.20;;;1.30;99.90;;;;;;8320741;28;20265;-71
2022/12/03 19:11:43;;;;;;;115.77;52.70;;;1.30;99.90;;;;;;8327178;28;20174;-71
2022/12/03 19:15:45;;;;;;;85.07;42.23;;;1.30;99.90;;;;;;8322197;28;20194;-72
2022/12/03 19:19:46;;;;;;;114.60;51.27;;;1.30;99.90;;;;;;8322458;28;20182;-71
2022/12/03 19:23:47;;;;;;;116.97;54.07;;;1.30;1.00;;;;;;8331124;28;20199;-71
2022/12/03 19:27:49;;;;;;;254.03;138.50;;;1.30;1.00;;;;;;8322063;28;20182;-71
2022/12/03 19:31:51;;;;;;;103.03;57.47;;;1.30;1.00;;;;;;8324137;28;20212;-71
2022/12/03 19:35:54;;;;;;;104.60;59.23;;;1.30;1.00;;;;;;8326070;28;20228;-71
2022/12/03 19:39:54;;;;;;;77.33;41.57;;;1.30;1.00;;;;;;8324491;28;20181;-71
2022/12/03 19:43:56;;;;;;;192.77;73.50;;;1.30;1.00;;;;;;8329155;28;20372;-71
2022/12/03 19:47:59;;;;;;;106.00;51.23;;;1.30;7.80;;;;;;8323124;28;20264;-71
2022/12/03 19:52:00;;;;;;;134.57;59.00;;;1.30;1.00;;;;;;8328244;28;20214;-71
2022/12/03 19:56:13;;;;;;;100.13;47.70;;;1.30;1.00;;;;;;8327444;28;20197;-71
2022/12/03 20:00:15;;;;;;;117.30;68.97;;;1.30;1.00;;;;;;8327683;28;20276;-71
2022/12/03 20:04:15;;;;;;;147.60;67.10;;;1.30;94.70;;;;;;8321212;28;20325;-71
2022/12/03 20:08:16;;;;;;;137.63;61.70;;;1.40;99.90;;;;;;8327913;28;20184;-72
2022/12/03 20:12:17;;;;;;;108.80;53.20;;;1.40;99.90;;;;;;8321705;28;20190;-72
2022/12/03 20:16:18;;;;;;;108.80;52.40;;;1.40;1.00;;;;;;8320638;28;20183;-72
2022/12/03 20:20:19;;;;;;;164.20;65.90;;;1.40;1.00;;;;;;8328287;28;20186;-71
2022/12/03 20:24:20;;;;;;;193.37;72.00;;;1.40;1.00;;;;;;8326071;28;20446;-72
2022/12/03 20:28:21;;;;;;;139.37;59.63;;;1.40;99.90;;;;;;8321555;28;20225;-71
2022/12/03 20:32:22;;;;;;;147.10;55.33;;;1.40;99.90;;;;;;8322450;28;20185;-72
2022/12/03 20:36:24;;;;;;;134.20;53.63;;;1.40;99.90;;;;;;8325831;28;20300;-72
2022/12/03 20:40:28;;;;;;;132.83;54.43;;;1.40;99.90;;;;;;8318077;28;20190;-71
2022/12/03 20:44:29;;;;;;;117.27;53.53;;;1.40;99.90;;;;;;8322994;28;20269;-71
2022/12/03 20:48:30;;;;;;;119.70;50.33;;;1.50;99.90;;;;;;8320881;28;20195;-72
2022/12/03 20:52:31;;;;;;;111.10;53.17;;;1.50;50.00;;;;;;8324959;28;20484;-71
2022/12/03 20:56:38;;;;;;;104.33;47.90;;;1.50;99.90;;;;;;8322666;28;20271;-71
2022/12/03 21:00:39;;;;;;;92.13;45.97;;;1.50;99.90;;;;;;8322125;28;20202;-71
2022/12/03 21:04:41;;;;;;;91.37;44.40;;;1.40;99.90;;;;;;8328907;28;20230;-71